createdAt,value
2023-01-18T00:00:18.961Z,-2.66
2023-01-18T00:02:47.262Z,-2.61
2023-01-18T00:05:15.608Z,-2.69
2023-01-18T00:07:43.575Z,-2.61
2023-01-18T00:10:11.835Z,-2.72
2023-01-18T00:12:39.746Z,-2.82
2023-01-18T00:15:10.701Z,-2.86
2023-01-18T00:17:47.760Z,-3.01
2023-01-18T00:20:16.266Z,-2.95
2023-01-18T00:22:44.411Z,-2.90
2023-01-18T00:25:12.914Z,-2.95
2023-01-18T00:27:41.991Z,-2.98
2023-01-18T00:30:12.955Z,-3.02
2023-01-18T00:32:40.721Z,-3.13
2023-01-18T00:35:09.235Z,-3.20
2023-01-18T00:37:37.977Z,-3.30
2023-01-18T00:40:07.649Z,-3.30
2023-01-18T00:42:52.970Z,-3.29
2023-01-18T00:45:22.246Z,-3.41
2023-01-18T00:47:50.123Z,-3.28
2023-01-18T00:50:19.719Z,-3.25
2023-01-18T00:52:47.632Z,-3.31
2023-01-18T00:55:17.606Z,-3.33
2023-01-18T00:57:45.549Z,-3.21
2023-01-18T01:00:15.710Z,-3.11
2023-01-18T01:02:44.954Z,-3.13
2023-01-18T01:05:36.329Z,-3.15
2023-01-18T01:08:05.895Z,-3.07
2023-01-18T01:10:34.067Z,-3.12
2023-01-18T01:13:20.005Z,-3.11
2023-01-18T01:16:05.550Z,-3.20
2023-01-18T01:18:52.015Z,-3.28
2023-01-18T01:21:37.421Z,-3.29
2023-01-18T01:24:23.608Z,-3.40
2023-01-18T01:26:51.478Z,-3.36
2023-01-18T01:29:19.409Z,-3.28
2023-01-18T01:31:47.427Z,-3.26
2023-01-18T01:34:16.805Z,-3.28
2023-01-18T01:36:47.524Z,-3.26
2023-01-18T01:39:15.524Z,-3.21
2023-01-18T01:41:43.582Z,-3.25
2023-01-18T01:44:43.373Z,-3.09
2023-01-18T01:47:15.509Z,-3.11
2023-01-18T01:49:48.564Z,-3.04
2023-01-18T01:52:20.635Z,-3.02
2023-01-18T01:54:55.194Z,-2.95
2023-01-18T01:57:26.074Z,-2.90
2023-01-18T01:59:59.068Z,-2.81
2023-01-18T02:02:27.052Z,-2.77
2023-01-18T02:04:57.631Z,-2.69
2023-01-18T02:07:28.972Z,-2.64
2023-01-18T02:09:58.752Z,-2.69
2023-01-18T02:12:28.435Z,-2.75
2023-01-18T02:14:57.988Z,-2.65
2023-01-18T02:17:39.241Z,-2.60
2023-01-18T02:20:34.238Z,-2.56
2023-01-18T02:23:26.005Z,-2.56
2023-01-18T02:26:31.677Z,-2.39
2023-01-18T02:29:07.320Z,-2.32
2023-01-18T02:31:39.541Z,-2.48
2023-01-18T02:34:13.493Z,-2.40
2023-01-18T02:36:48.857Z,-2.27
2023-01-18T02:39:31.563Z,-2.34
2023-01-18T02:42:22.489Z,-2.37
2023-01-18T02:45:09.771Z,-2.39
2023-01-18T02:47:38.587Z,-2.36
2023-01-18T02:50:07.284Z,-2.33
2023-01-18T02:52:47.265Z,-2.48
2023-01-18T02:55:25.263Z,-2.48
2023-01-18T02:57:56.403Z,-2.53
2023-01-18T03:00:28.045Z,-2.69
2023-01-18T03:02:59.902Z,-2.81
2023-01-18T03:05:30.274Z,-2.94
2023-01-18T03:08:06.730Z,-3.01
2023-01-18T03:10:43.885Z,-3.01
2023-01-18T03:13:18.154Z,-2.99
2023-01-18T03:15:51.691Z,-3.04
2023-01-18T03:18:24.170Z,-3.05
2023-01-18T03:20:58.675Z,-3.01
2023-01-18T03:23:40.067Z,-2.92
2023-01-18T03:26:10.072Z,-2.89
2023-01-18T03:28:58.146Z,-3.02
2023-01-18T03:31:52.776Z,-3.05
2023-01-18T03:34:26.674Z,-2.95
2023-01-18T03:36:56.743Z,-2.92
2023-01-18T03:39:28.594Z,-2.87
2023-01-18T03:42:00.341Z,-2.99
2023-01-18T03:44:35.520Z,-3.07
2023-01-18T03:47:08.922Z,-3.08
2023-01-18T03:49:37.632Z,-3.05
2023-01-18T03:52:19.233Z,-2.99
2023-01-18T03:55:03.405Z,-2.92
2023-01-18T03:57:35.484Z,-2.92
2023-01-18T04:00:06.115Z,-3.00
2023-01-18T04:02:38.496Z,-3.09
2023-01-18T04:05:07.295Z,-3.14
2023-01-18T04:07:35.207Z,-3.11
2023-01-18T04:10:05.454Z,-3.01
2023-01-18T04:12:34.419Z,-2.95
2023-01-18T04:15:02.551Z,-2.83
2023-01-18T04:17:30.695Z,-2.84
2023-01-18T04:20:00.040Z,-2.84
2023-01-18T04:22:28.138Z,-2.94
2023-01-18T04:24:56.144Z,-3.02
2023-01-18T04:27:25.244Z,-3.07
2023-01-18T04:29:53.165Z,-3.07
2023-01-18T04:32:21.167Z,-3.07
2023-01-18T04:34:49.339Z,-2.99
2023-01-18T04:37:18.583Z,-3.01
2023-01-18T04:39:47.638Z,-3.01
2023-01-18T04:42:16.423Z,-3.04
2023-01-18T04:44:44.512Z,-3.07
2023-01-18T04:47:12.272Z,-3.10
2023-01-18T04:49:40.156Z,-3.09
2023-01-18T04:52:09.682Z,-3.08
2023-01-18T04:54:41.563Z,-3.04
2023-01-18T04:57:09.509Z,-2.94
2023-01-18T04:59:39.199Z,-2.95
2023-01-18T05:02:07.202Z,-2.87
2023-01-18T05:04:35.177Z,-2.93
2023-01-18T05:07:03.064Z,-3.05
2023-01-18T05:09:34.253Z,-3.00
2023-01-18T05:12:03.604Z,-2.89
2023-01-18T05:14:31.470Z,-2.82
2023-01-18T05:16:59.492Z,-2.81
2023-01-18T05:19:30.585Z,-2.75
2023-01-18T05:21:58.594Z,-2.69
2023-01-18T05:24:29.789Z,-2.65
2023-01-18T05:26:57.964Z,-2.62
2023-01-18T05:29:27.340Z,-2.62
2023-01-18T05:31:55.328Z,-2.67
2023-01-18T05:34:23.320Z,-2.69
2023-01-18T05:36:51.295Z,-2.79
2023-01-18T05:39:19.503Z,-2.86
2023-01-18T05:41:47.521Z,-2.86
2023-01-18T05:44:15.943Z,-2.83
2023-01-18T05:46:45.382Z,-2.63
2023-01-18T05:49:13.505Z,-2.48
2023-01-18T05:51:41.909Z,-2.42
2023-01-18T05:54:10.163Z,-2.38
2023-01-18T05:56:39.953Z,-2.43
2023-01-18T05:59:08.017Z,-2.49
2023-01-18T06:01:35.971Z,-2.57
2023-01-18T06:04:05.368Z,-2.65
2023-01-18T06:06:34.734Z,-2.72
2023-01-18T06:09:03.545Z,-2.74
2023-01-18T06:11:31.567Z,-2.69
2023-01-18T06:13:59.518Z,-2.67
2023-01-18T06:16:27.641Z,-2.55
2023-01-18T06:18:55.717Z,-2.60
2023-01-18T06:21:25.290Z,-2.59
2023-01-18T06:23:53.125Z,-2.67
2023-01-18T06:26:20.970Z,-2.76
2023-01-18T06:28:48.742Z,-2.92
2023-01-18T06:31:16.555Z,-2.86
2023-01-18T06:33:44.434Z,-2.92
2023-01-18T06:36:12.273Z,-2.92
2023-01-18T06:38:41.664Z,-2.86
2023-01-18T06:41:10.284Z,-2.89
2023-01-18T06:43:38.220Z,-2.90
2023-01-18T06:46:08.379Z,-2.81
2023-01-18T06:48:36.585Z,-2.71
2023-01-18T06:51:05.192Z,-2.61
2023-01-18T06:53:33.014Z,-2.64
2023-01-18T06:56:02.883Z,-2.57
2023-01-18T06:58:33.535Z,-2.42
2023-01-18T07:01:02.519Z,-2.43
2023-01-18T07:03:32.025Z,-2.45
2023-01-18T07:06:02.370Z,-2.37
2023-01-18T07:08:32.018Z,-2.35
2023-01-18T07:11:05.230Z,-2.39
2023-01-18T07:13:33.150Z,-2.43
2023-01-18T07:16:03.302Z,-2.32
2023-01-18T07:18:32.171Z,-2.29
2023-01-18T07:21:01.696Z,-2.26
2023-01-18T07:23:31.392Z,-2.25
2023-01-18T07:26:04.256Z,-2.31
2023-01-18T07:28:36.245Z,-2.41
2023-01-18T07:31:06.308Z,-2.51
2023-01-18T07:33:34.315Z,-2.59
2023-01-18T07:36:04.914Z,-2.39
2023-01-18T07:38:33.913Z,-2.36
2023-01-18T07:41:03.312Z,-2.45
2023-01-18T07:43:34.102Z,-2.54
2023-01-18T07:46:04.174Z,-2.53
2023-01-18T07:48:32.642Z,-2.46
2023-01-18T07:51:02.679Z,-2.45
2023-01-18T07:53:33.989Z,-2.40
2023-01-18T07:56:02.989Z,-2.42
2023-01-18T07:58:32.664Z,-2.34
2023-01-18T08:01:05.853Z,-2.34
2023-01-18T08:03:34.324Z,-2.11
2023-01-18T08:06:02.487Z,-1.97
2023-01-18T08:08:31.733Z,-1.85
2023-01-18T08:11:01.865Z,-1.74
2023-01-18T08:13:30.029Z,-1.86
2023-01-18T08:16:01.646Z,-1.83
2023-01-18T08:18:30.063Z,-1.97
2023-01-18T08:20:58.492Z,-1.97
2023-01-18T08:23:26.799Z,-1.93
2023-01-18T08:25:55.439Z,-1.90
2023-01-18T08:28:23.954Z,-1.84
2023-01-18T08:30:52.025Z,-1.69
2023-01-18T08:33:22.362Z,-1.59
2023-01-18T08:35:50.276Z,-1.68
2023-01-18T08:38:18.421Z,-1.58
2023-01-18T08:40:46.359Z,-1.54
2023-01-18T08:43:14.273Z,-1.43
2023-01-18T08:45:42.387Z,-1.32
2023-01-18T08:48:11.917Z,-1.27
2023-01-18T08:50:42.986Z,-1.12
2023-01-18T08:53:10.951Z,-1.01
2023-01-18T08:55:40.373Z,-0.88
2023-01-18T08:58:08.402Z,-0.82
2023-01-18T09:00:36.392Z,-0.63
2023-01-18T09:03:06.767Z,-0.64
2023-01-18T09:05:36.736Z,-0.57
2023-01-18T09:08:06.608Z,-0.40
2023-01-18T09:10:37.615Z,-0.20
2023-01-18T09:13:06.712Z,-0.11
2023-01-18T09:15:34.694Z,-0.06
2023-01-18T09:18:06.227Z,0.09
2023-01-18T09:20:35.989Z,0.19
2023-01-18T09:23:09.760Z,0.37
2023-01-18T09:25:39.173Z,0.70
2023-01-18T09:28:07.110Z,0.98
2023-01-18T09:30:35.973Z,1.22
2023-01-18T09:33:03.858Z,1.10
2023-01-18T09:35:33.075Z,1.06
2023-01-18T09:38:01.073Z,1.11
2023-01-18T09:40:44.938Z,1.12
2023-01-18T09:43:19.419Z,1.11
2023-01-18T09:45:49.109Z,1.15
2023-01-18T09:48:29.402Z,1.23
2023-01-18T09:51:02.221Z,1.31
2023-01-18T09:53:58.067Z,1.45
2023-01-18T09:56:30.807Z,1.43
2023-01-18T09:59:12.694Z,1.38
2023-01-18T10:01:42.269Z,1.37
2023-01-18T10:04:17.891Z,1.38
2023-01-18T10:06:50.443Z,1.53
2023-01-18T10:09:22.093Z,1.50
2023-01-18T10:11:59.716Z,1.47
2023-01-18T10:14:47.973Z,1.46
2023-01-18T10:17:19.101Z,1.35
2023-01-18T10:19:47.073Z,1.29
2023-01-18T10:22:22.143Z,1.46
2023-01-18T10:25:00.852Z,1.52
2023-01-18T10:27:41.661Z,1.61
2023-01-18T10:30:38.191Z,1.62
2023-01-18T10:33:21.156Z,1.55
2023-01-18T10:35:51.836Z,1.52
2023-01-18T10:38:23.211Z,1.55
2023-01-18T10:40:57.489Z,1.64
2023-01-18T10:43:28.836Z,1.80
2023-01-18T10:45:57.524Z,1.90
2023-01-18T10:48:31.510Z,1.93
2023-01-18T10:51:01.929Z,1.89
2023-01-18T10:53:32.601Z,1.79
2023-01-18T10:56:08.763Z,1.74
2023-01-18T10:58:44.745Z,1.81
2023-01-18T11:01:16.662Z,1.83
2023-01-18T11:03:50.467Z,1.77
2023-01-18T11:06:20.610Z,1.82
2023-01-18T11:08:50.390Z,1.87
2023-01-18T11:11:50.135Z,1.91
2023-01-18T11:14:27.666Z,2.07
2023-01-18T11:16:59.903Z,2.03
2023-01-18T11:19:28.466Z,1.94
2023-01-18T11:21:56.928Z,1.82
2023-01-18T11:24:29.004Z,1.92
2023-01-18T11:27:01.745Z,2.07
2023-01-18T11:29:34.119Z,1.95
2023-01-18T11:32:05.173Z,1.96
2023-01-18T11:34:35.894Z,2.14
2023-01-18T11:37:04.331Z,2.13
2023-01-18T11:39:34.412Z,2.16
2023-01-18T11:42:15.873Z,2.18
2023-01-18T11:44:48.455Z,2.28
2023-01-18T11:47:22.822Z,2.31
2023-01-18T11:49:58.339Z,2.34
2023-01-18T11:52:42.384Z,2.38
2023-01-18T11:55:24.203Z,2.43
2023-01-18T11:57:54.020Z,2.39
2023-01-18T12:00:28.252Z,2.36
2023-01-18T12:03:16.439Z,2.43
2023-01-18T12:05:53.061Z,2.39
2023-01-18T12:08:45.881Z,2.33
2023-01-18T12:11:50.805Z,2.24
2023-01-18T12:14:40.817Z,2.28
2023-01-18T12:17:32.216Z,2.25
2023-01-18T12:20:27.229Z,2.19
2023-01-18T12:23:34.275Z,2.22
2023-01-18T12:26:29.770Z,2.25
2023-01-18T12:29:15.271Z,2.16
2023-01-18T12:31:57.496Z,2.15
2023-01-18T12:34:37.005Z,2.07
2023-01-18T12:37:21.179Z,2.18
2023-01-18T12:39:59.578Z,2.10
2023-01-18T12:42:46.637Z,2.21
2023-01-18T12:45:23.733Z,2.27
2023-01-18T12:48:04.199Z,2.27
2023-01-18T12:50:37.094Z,2.34
2023-01-18T12:53:11.645Z,2.33
2023-01-18T12:55:40.923Z,2.34
2023-01-18T12:58:15.385Z,2.26
2023-01-18T13:00:49.924Z,2.36
2023-01-18T13:03:23.530Z,2.38
2023-01-18T13:05:57.581Z,2.33
2023-01-18T13:08:39.253Z,2.29
2023-01-18T13:11:10.376Z,2.28
2023-01-18T13:13:40.930Z,2.25
2023-01-18T13:16:17.386Z,2.30
2023-01-18T13:18:53.409Z,2.26
2023-01-18T13:21:33.048Z,2.33
2023-01-18T13:24:08.365Z,2.38
2023-01-18T13:26:37.336Z,2.37
2023-01-18T13:29:16.710Z,2.33
2023-01-18T13:31:45.596Z,2.32
2023-01-18T13:34:28.637Z,2.28
2023-01-18T13:37:13.335Z,2.21
2023-01-18T13:39:48.468Z,2.21
2023-01-18T13:42:34.040Z,2.04
2023-01-18T13:45:17.115Z,2.10
2023-01-18T13:47:51.082Z,2.05
2023-01-18T13:50:44.649Z,2.07
2023-01-18T13:53:20.917Z,2.12
2023-01-18T13:55:53.596Z,2.11
2023-01-18T13:58:26.686Z,2.07
2023-01-18T14:00:58.593Z,2.12
2023-01-18T14:03:29.696Z,2.06
2023-01-18T14:05:58.831Z,2.18
2023-01-18T14:08:32.674Z,2.12
2023-01-18T14:11:06.837Z,2.11
2023-01-18T14:14:04.238Z,2.09
2023-01-18T14:16:35.099Z,2.07
2023-01-18T14:19:12.577Z,1.98
2023-01-18T14:21:57.720Z,1.85
2023-01-18T14:24:41.755Z,1.96
2023-01-18T14:27:18.908Z,1.95
2023-01-18T14:29:51.326Z,1.90
2023-01-18T14:32:23.189Z,1.89
2023-01-18T14:35:01.615Z,1.90
2023-01-18T14:37:31.349Z,1.88
2023-01-18T14:40:20.891Z,1.91
2023-01-18T14:42:53.224Z,1.84
2023-01-18T14:45:27.949Z,1.87
2023-01-18T14:47:58.658Z,1.74
2023-01-18T14:50:27.860Z,1.76
2023-01-18T14:52:56.281Z,1.73
2023-01-18T14:55:31.129Z,1.66
2023-01-18T14:58:12.264Z,1.61
2023-01-18T15:00:50.031Z,1.57
2023-01-18T15:03:24.271Z,1.57
2023-01-18T15:06:01.664Z,1.54
2023-01-18T15:08:34.037Z,1.56
2023-01-18T15:11:06.043Z,1.52
2023-01-18T15:13:39.466Z,1.45
2023-01-18T15:16:07.841Z,1.45
2023-01-18T15:18:35.775Z,1.49
2023-01-18T15:21:06.322Z,1.47
2023-01-18T15:23:38.238Z,1.42
2023-01-18T15:26:07.714Z,1.41
2023-01-18T15:28:36.135Z,1.34
2023-01-18T15:31:12.302Z,1.28
2023-01-18T15:33:40.834Z,1.26
2023-01-18T15:36:10.404Z,1.26
2023-01-18T15:38:38.803Z,1.24
2023-01-18T15:41:11.983Z,1.14
2023-01-18T15:43:43.329Z,1.12
2023-01-18T15:46:15.183Z,1.10
2023-01-18T15:48:50.181Z,1.09
2023-01-18T15:51:18.303Z,0.99
2023-01-18T15:53:52.443Z,0.99
2023-01-18T15:56:26.721Z,0.93
2023-01-18T15:58:56.456Z,0.90
2023-01-18T16:01:28.064Z,0.89
2023-01-18T16:03:58.798Z,0.87
2023-01-18T16:06:33.027Z,0.83
2023-01-18T16:09:10.571Z,0.79
2023-01-18T16:11:49.877Z,0.74
2023-01-18T16:14:24.265Z,0.72
2023-01-18T16:16:54.188Z,0.69
2023-01-18T16:19:28.574Z,0.65
2023-01-18T16:21:59.763Z,0.57
2023-01-18T16:24:31.691Z,0.59
2023-01-18T16:27:10.292Z,0.57
2023-01-18T16:29:45.102Z,0.54
2023-01-18T16:32:29.454Z,0.50
2023-01-18T16:35:01.875Z,0.44
2023-01-18T16:37:30.783Z,0.45
2023-01-18T16:39:58.920Z,0.41
2023-01-18T16:42:37.545Z,0.32
2023-01-18T16:45:06.527Z,0.18
2023-01-18T16:47:35.205Z,0.14
2023-01-18T16:50:04.887Z,0.10
2023-01-18T16:52:32.862Z,0.01
2023-01-18T16:55:00.813Z,-0.10
2023-01-18T16:57:30.798Z,-0.14
2023-01-18T16:59:58.612Z,-0.20
2023-01-18T17:02:26.713Z,-0.20
2023-01-18T17:04:54.752Z,-0.20
2023-01-18T17:07:22.489Z,-0.25
2023-01-18T17:09:52.537Z,-0.31
2023-01-18T17:12:21.044Z,-0.34
2023-01-18T17:14:50.253Z,-0.39
2023-01-18T17:17:18.054Z,-0.42
2023-01-18T17:19:45.982Z,-0.49
2023-01-18T17:22:13.832Z,-0.50
2023-01-18T17:24:41.801Z,-0.52
2023-01-18T17:27:13.062Z,-0.56
2023-01-18T17:29:41.243Z,-0.56
2023-01-18T17:32:13.150Z,-0.58
2023-01-18T17:34:41.134Z,-0.65
2023-01-18T17:37:09.093Z,-0.60
2023-01-18T17:39:44.003Z,-0.52
2023-01-18T17:42:22.835Z,-0.59
2023-01-18T17:45:02.916Z,-0.56
2023-01-18T17:47:33.971Z,-0.53
2023-01-18T17:50:08.507Z,-0.49
2023-01-18T17:52:37.216Z,-0.47
2023-01-18T17:55:06.066Z,-0.50
2023-01-18T17:57:33.954Z,-0.43
2023-01-18T18:00:02.051Z,-0.51
2023-01-18T18:02:30.013Z,-0.55
2023-01-18T18:04:59.344Z,-0.66
2023-01-18T18:07:27.290Z,-0.77
2023-01-18T18:10:00.758Z,-0.77
2023-01-18T18:12:29.495Z,-0.85
2023-01-18T18:14:57.725Z,-0.92
2023-01-18T18:17:27.753Z,-0.94
2023-01-18T18:19:55.532Z,-0.99
2023-01-18T18:22:25.188Z,-1.08
2023-01-18T18:24:53.706Z,-1.09
2023-01-18T18:27:24.667Z,-1.13
2023-01-18T18:29:52.871Z,-1.19
2023-01-18T18:32:20.752Z,-1.31
2023-01-18T18:34:48.907Z,-1.39
2023-01-18T18:37:18.043Z,-1.46
2023-01-18T18:39:47.424Z,-1.52
2023-01-18T18:42:15.558Z,-1.59
2023-01-18T18:44:43.450Z,-1.67
2023-01-18T18:47:13.468Z,-1.75
2023-01-18T18:49:41.601Z,-1.69
2023-01-18T18:52:09.702Z,-1.65
2023-01-18T18:54:37.650Z,-1.73
2023-01-18T18:57:07.627Z,-1.71
2023-01-18T18:59:35.599Z,-1.81
2023-01-18T19:02:03.445Z,-1.83
2023-01-18T19:04:31.272Z,-1.84
2023-01-18T19:06:59.091Z,-1.86
2023-01-18T19:09:26.982Z,-1.89
2023-01-18T19:11:55.727Z,-1.90
2023-01-18T19:14:26.479Z,-1.87
2023-01-18T19:16:54.409Z,-1.95
2023-01-18T19:19:22.235Z,-1.99
2023-01-18T19:21:50.269Z,-2.06
2023-01-18T19:24:18.097Z,-2.11
2023-01-18T19:26:46.042Z,-2.14
2023-01-18T19:29:13.870Z,-2.27
2023-01-18T19:31:43.091Z,-2.33
2023-01-18T19:34:11.275Z,-2.36
2023-01-18T19:36:39.239Z,-2.28
2023-01-18T19:39:14.747Z,-2.34
2023-01-18T19:41:50.001Z,-2.31
2023-01-18T19:44:18.226Z,-2.25
2023-01-18T19:46:47.425Z,-2.17
2023-01-18T19:49:15.253Z,-2.11
2023-01-18T19:51:44.688Z,-2.13
2023-01-18T19:54:13.342Z,-2.09
2023-01-18T19:56:41.263Z,-2.00
2023-01-18T19:59:11.314Z,-1.97
2023-01-18T20:01:39.734Z,-1.91
2023-01-18T20:04:09.492Z,-1.91
2023-01-18T20:06:38.706Z,-1.97
2023-01-18T20:09:18.498Z,-2.06
2023-01-18T20:11:50.124Z,-2.11
2023-01-18T20:14:18.475Z,-2.18
2023-01-18T20:16:46.809Z,-2.17
2023-01-18T20:19:19.222Z,-2.17
2023-01-18T20:21:47.550Z,-2.21
2023-01-18T20:24:16.374Z,-2.15
2023-01-18T20:26:44.475Z,-2.18
2023-01-18T20:29:13.218Z,-2.20
2023-01-18T20:31:44.610Z,-2.31
2023-01-18T20:34:17.795Z,-2.41
2023-01-18T20:36:46.049Z,-2.42
2023-01-18T20:39:14.499Z,-2.41
2023-01-18T20:41:42.668Z,-2.39
2023-01-18T20:44:10.643Z,-2.44
2023-01-18T20:46:38.441Z,-2.49
2023-01-18T20:49:06.358Z,-2.61
2023-01-18T20:55:16.706Z,-2.81
2023-01-18T20:57:44.601Z,-2.85
2023-01-18T21:00:13.930Z,-2.90
2023-01-18T21:02:42.875Z,-2.97
2023-01-18T21:05:10.948Z,-3.03
2023-01-18T21:07:41.758Z,-3.00
2023-01-18T21:10:11.352Z,-2.93
2023-01-18T21:12:41.358Z,-2.88
2023-01-18T21:15:10.134Z,-2.85
2023-01-18T21:17:38.049Z,-2.84
2023-01-18T21:20:06.668Z,-2.87
2023-01-18T21:22:34.486Z,-2.86
2023-01-18T21:25:02.369Z,-2.79
2023-01-18T21:27:33.082Z,-2.68
2023-01-18T21:30:02.241Z,-2.60
2023-01-18T21:32:30.124Z,-2.55
2023-01-18T21:34:57.951Z,-2.52
2023-01-18T21:37:25.725Z,-2.48
2023-01-18T21:39:53.507Z,-2.46
2023-01-18T21:42:39.280Z,-2.43
2023-01-18T21:45:28.448Z,-2.42
2023-01-18T21:47:56.322Z,-2.45
2023-01-18T21:50:49.757Z,-2.46
2023-01-18T21:53:35.223Z,-2.44
2023-01-18T21:56:03.068Z,-2.42
2023-01-18T21:58:48.690Z,-2.40
2023-01-18T22:01:19.855Z,-2.40
2023-01-18T22:04:05.432Z,-2.42
2023-01-18T22:06:33.461Z,-2.42
2023-01-18T22:09:01.448Z,-2.46
2023-01-18T22:11:29.533Z,-2.48
2023-01-18T22:13:57.490Z,-2.43
2023-01-18T22:16:30.463Z,-2.42
2023-01-18T22:18:59.215Z,-2.40
2023-01-18T22:21:27.301Z,-2.29
2023-01-18T22:23:55.526Z,-2.35
2023-01-18T22:26:24.840Z,-2.33
2023-01-18T22:28:53.422Z,-2.26
2023-01-18T22:31:21.261Z,-2.31
2023-01-18T22:33:50.613Z,-2.27
2023-01-18T22:36:18.554Z,-2.23
2023-01-18T22:38:46.646Z,-2.32
2023-01-18T22:41:19.324Z,-2.31
2023-01-18T22:43:47.531Z,-2.34
2023-01-18T22:46:17.328Z,-2.31
2023-01-18T22:48:45.860Z,-2.32
2023-01-18T22:51:17.310Z,-2.31
2023-01-18T22:53:46.102Z,-2.21
2023-01-18T22:56:19.312Z,-2.22
2023-01-18T22:58:47.362Z,-2.16
2023-01-18T23:01:17.798Z,-2.12
2023-01-18T23:03:46.195Z,-2.18
2023-01-18T23:06:15.761Z,-2.22
2023-01-18T23:08:43.846Z,-2.22
2023-01-18T23:11:14.051Z,-2.31
2023-01-18T23:13:43.427Z,-2.32
2023-01-18T23:16:32.274Z,-2.34
2023-01-18T23:19:00.237Z,-2.49
2023-01-18T23:21:29.522Z,-2.45
2023-01-18T23:23:57.348Z,-2.42
2023-01-18T23:26:25.313Z,-2.38
2023-01-18T23:28:53.262Z,-2.41
2023-01-18T23:31:21.252Z,-2.43
2023-01-18T23:33:49.326Z,-2.50
2023-01-18T23:36:17.280Z,-2.56
2023-01-18T23:39:04.205Z,-2.65
2023-01-18T23:41:50.034Z,-2.65
2023-01-18T23:44:35.136Z,-2.65
2023-01-18T23:47:20.715Z,-2.70
2023-01-18T23:50:06.328Z,-2.75
2023-01-18T23:52:51.711Z,-2.66
2023-01-18T23:55:21.161Z,-2.68
2023-01-18T23:57:49.103Z,-2.66
